sensor_id;sensor_type;location;lat;lon;timestamp;temperature;humidity
19870;DHT22;10097;50.862;4.696;2022-12-18T00:00:46;-3.30;99.90
19870;DHT22;10097;50.862;4.696;2022-12-18T00:03:15;-3.40;99.90
19870;DHT22;10097;50.862;4.696;2022-12-18T00:05:51;-3.40;99.90
19870;DHT22;10097;50.862;4.696;2022-12-18T00:08:18;-3.40;99.90
19870;DHT22;10097;50.862;4.696;2022-12-18T00:10:46;-3.40;99.90
19870;DHT22;10097;50.862;4.696;2022-12-18T00:13:12;-3.50;99.90
19870;DHT22;10097;50.862;4.696;2022-12-18T00:15:38;-3.60;99.90
19870;DHT22;10097;50.862;4.696;2022-12-18T00:18:05;-3.60;99.90
19870;DHT22;10097;50.862;4.696;2022-12-18T00:20:31;-3.60;99.90
19870;DHT22;10097;50.862;4.696;2022-12-18T00:22:57;-3.60;99.90
19870;DHT22;10097;50.862;4.696;2022-12-18T00:25:22;-3.60;99.90
19870;DHT22;10097;50.862;4.696;2022-12-18T00:27:48;-3.60;99.90
19870;DHT22;10097;50.862;4.696;2022-12-18T00:30:14;-3.70;99.90
19870;DHT22;10097;50.862;4.696;2022-12-18T00:32:40;-3.70;99.90
19870;DHT22;10097;50.862;4.696;2022-12-18T00:35:06;-3.70;99.90
19870;DHT22;10097;50.862;4.696;2022-12-18T00:37:33;-3.70;99.90
19870;DHT22;10097;50.862;4.696;2022-12-18T00:39:59;-3.70;99.90
19870;DHT22;10097;50.862;4.696;2022-12-18T00:42:25;-3.80;99.90
19870;DHT22;10097;50.862;4.696;2022-12-18T00:45:10;-3.70;99.90
19870;DHT22;10097;50.862;4.696;2022-12-18T00:47:35;-3.80;99.90
19870;DHT22;10097;50.862;4.696;2022-12-18T00:50:01;-3.80;99.90
19870;DHT22;10097;50.862;4.696;2022-12-18T00:52:27;-3.80;99.90
19870;DHT22;10097;50.862;4.696;2022-12-18T00:54:52;-3.80;99.90
19870;DHT22;10097;50.862;4.696;2022-12-18T00:57:18;-3.80;99.90
19870;DHT22;10097;50.862;4.696;2022-12-18T00:59:43;-3.80;99.90
19870;DHT22;10097;50.862;4.696;2022-12-18T01:02:09;-3.80;99.90
19870;DHT22;10097;50.862;4.696;2022-12-18T01:04:35;-3.90;99.90
19870;DHT22;10097;50.862;4.696;2022-12-18T01:07:00;-3.90;99.90
19870;DHT22;10097;50.862;4.696;2022-12-18T01:09:26;-3.90;99.90
19870;DHT22;10097;50.862;4.696;2022-12-18T01:11:52;-3.90;99.90
19870;DHT22;10097;50.862;4.696;2022-12-18T01:14:17;-3.90;99.90
19870;DHT22;10097;50.862;4.696;2022-12-18T01:16:43;-3.90;99.90
19870;DHT22;10097;50.862;4.696;2022-12-18T01:19:09;-4.00;99.90
19870;DHT22;10097;50.862;4.696;2022-12-18T01:21:36;-4.00;99.90
19870;DHT22;10097;50.862;4.696;2022-12-18T01:24:01;-4.00;99.90
19870;DHT22;10097;50.862;4.696;2022-12-18T01:26:28;-4.00;99.90
19870;DHT22;10097;50.862;4.696;2022-12-18T01:28:55;-4.10;99.90
19870;DHT22;10097;50.862;4.696;2022-12-18T01:31:27;-4.10;99.90
19870;DHT22;10097;50.862;4.696;2022-12-18T01:33:53;-4.10;99.90
19870;DHT22;10097;50.862;4.696;2022-12-18T01:38:47;-4.10;99.90
19870;DHT22;10097;50.862;4.696;2022-12-18T01:41:13;-4.10;99.90
19870;DHT22;10097;50.862;4.696;2022-12-18T01:46:11;-4.10;99.90
19870;DHT22;10097;50.862;4.696;2022-12-18T01:48:37;-4.10;99.90
19870;DHT22;10097;50.862;4.696;2022-12-18T01:51:04;-4.10;99.90
19870;DHT22;10097;50.862;4.696;2022-12-18T01:53:31;-4.10;99.90
19870;DHT22;10097;50.862;4.696;2022-12-18T01:55:58;-4.10;99.90
19870;DHT22;10097;50.862;4.696;2022-12-18T01:58:39;-4.20;99.90
19870;DHT22;10097;50.862;4.696;2022-12-18T02:01:07;-4.10;99.90
19870;DHT22;10097;50.862;4.696;2022-12-18T02:03:33;-4.10;99.90
19870;DHT22;10097;50.862;4.696;2022-12-18T02:06:40;-4.10;99.90
19870;DHT22;10097;50.862;4.696;2022-12-18T02:09:16;-4.20;99.90
19870;DHT22;10097;50.862;4.696;2022-12-18T02:17:19;-4.20;99.90
19870;DHT22;10097;50.862;4.696;2022-12-18T02:20:14;-4.20;99.90
19870;DHT22;10097;50.862;4.696;2022-12-18T02:28:11;-4.20;99.90
19870;DHT22;10097;50.862;4.696;2022-12-18T02:30:39;-4.30;99.90
19870;DHT22;10097;50.862;4.696;2022-12-18T02:33:07;-4.20;99.90
19870;DHT22;10097;50.862;4.696;2022-12-18T02:35:34;-4.20;99.90
19870;DHT22;10097;50.862;4.696;2022-12-18T02:38:02;-4.20;99.90
19870;DHT22;10097;50.862;4.696;2022-12-18T02:40:29;-4.30;99.90
19870;DHT22;10097;50.862;4.696;2022-12-18T02:42:57;-4.30;99.90
19870;DHT22;10097;50.862;4.696;2022-12-18T02:45:27;-4.30;99.90
19870;DHT22;10097;50.862;4.696;2022-12-18T02:47:52;-4.30;99.90
19870;DHT22;10097;50.862;4.696;2022-12-18T02:50:44;-4.40;99.90
19870;DHT22;10097;50.862;4.696;2022-12-18T02:53:21;-4.30;99.90
19870;DHT22;10097;50.862;4.696;2022-12-18T02:58:58;-4.40;99.90
19870;DHT22;10097;50.862;4.696;2022-12-18T03:01:33;-4.50;99.90
19870;DHT22;10097;50.862;4.696;2022-12-18T03:04:19;-4.50;99.90
19870;DHT22;10097;50.862;4.696;2022-12-18T03:06:49;-4.50;99.90
19870;DHT22;10097;50.862;4.696;2022-12-18T03:09:44;-4.60;99.90
19870;DHT22;10097;50.862;4.696;2022-12-18T03:17:31;-4.60;99.90
19870;DHT22;10097;50.862;4.696;2022-12-18T03:20:03;-4.60;99.90
19870;DHT22;10097;50.862;4.696;2022-12-18T03:22:32;-4.60;99.90
19870;DHT22;10097;50.862;4.696;2022-12-18T03:25:00;-4.60;99.90
19870;DHT22;10097;50.862;4.696;2022-12-18T03:27:28;-4.70;99.90
19870;DHT22;10097;50.862;4.696;2022-12-18T03:30:08;-4.70;99.90
19870;DHT22;10097;50.862;4.696;2022-12-18T03:35:36;-4.70;99.90
19870;DHT22;10097;50.862;4.696;2022-12-18T03:38:03;-4.70;99.90
19870;DHT22;10097;50.862;4.696;2022-12-18T03:40:41;-4.80;99.90
19870;DHT22;10097;50.862;4.696;2022-12-18T03:43:19;-4.80;99.90
19870;DHT22;10097;50.862;4.696;2022-12-18T03:45:54;-4.80;99.90
19870;DHT22;10097;50.862;4.696;2022-12-18T03:48:33;-4.80;99.90
19870;DHT22;10097;50.862;4.696;2022-12-18T03:51:07;-4.80;99.90
19870;DHT22;10097;50.862;4.696;2022-12-18T03:53:43;-4.80;99.90
19870;DHT22;10097;50.862;4.696;2022-12-18T03:56:11;-4.80;99.90
19870;DHT22;10097;50.862;4.696;2022-12-18T03:58:40;-4.90;99.90
19870;DHT22;10097;50.862;4.696;2022-12-18T04:01:08;-4.90;99.90
19870;DHT22;10097;50.862;4.696;2022-12-18T04:03:35;-4.90;99.90
19870;DHT22;10097;50.862;4.696;2022-12-18T04:06:02;-5.00;99.90
19870;DHT22;10097;50.862;4.696;2022-12-18T04:08:28;-5.00;99.90
19870;DHT22;10097;50.862;4.696;2022-12-18T04:10:54;-5.00;99.90
19870;DHT22;10097;50.862;4.696;2022-12-18T04:13:24;-5.00;99.90
19870;DHT22;10097;50.862;4.696;2022-12-18T04:15:53;-5.00;99.90
19870;DHT22;10097;50.862;4.696;2022-12-18T04:18:18;-5.00;99.90
19870;DHT22;10097;50.862;4.696;2022-12-18T04:20:44;-5.00;99.90
19870;DHT22;10097;50.862;4.696;2022-12-18T04:23:12;-5.00;99.90
19870;DHT22;10097;50.862;4.696;2022-12-18T04:25:38;-5.10;99.90
19870;DHT22;10097;50.862;4.696;2022-12-18T04:28:03;-5.10;99.90
19870;DHT22;10097;50.862;4.696;2022-12-18T04:30:29;-5.00;99.90
19870;DHT22;10097;50.862;4.696;2022-12-18T04:32:55;-5.00;99.90
19870;DHT22;10097;50.862;4.696;2022-12-18T04:35:20;-5.00;99.90
19870;DHT22;10097;50.862;4.696;2022-12-18T04:37:46;-5.10;99.90
19870;DHT22;10097;50.862;4.696;2022-12-18T04:40:12;-5.10;99.90
19870;DHT22;10097;50.862;4.696;2022-12-18T04:42:39;-5.10;99.90
19870;DHT22;10097;50.862;4.696;2022-12-18T04:45:05;-5.10;99.90
19870;DHT22;10097;50.862;4.696;2022-12-18T04:47:31;-5.10;99.90
19870;DHT22;10097;50.862;4.696;2022-12-18T04:49:56;-5.10;99.90
19870;DHT22;10097;50.862;4.696;2022-12-18T04:52:22;-5.20;99.90
19870;DHT22;10097;50.862;4.696;2022-12-18T04:54:48;-5.20;99.90
19870;DHT22;10097;50.862;4.696;2022-12-18T04:57:13;-5.20;99.90
19870;DHT22;10097;50.862;4.696;2022-12-18T04:59:39;-5.20;99.90
19870;DHT22;10097;50.862;4.696;2022-12-18T05:02:07;-5.20;99.90
19870;DHT22;10097;50.862;4.696;2022-12-18T05:04:32;-5.20;99.90
19870;DHT22;10097;50.862;4.696;2022-12-18T05:07:00;-5.20;99.90
19870;DHT22;10097;50.862;4.696;2022-12-18T05:09:26;-5.20;99.90
19870;DHT22;10097;50.862;4.696;2022-12-18T05:11:52;-5.20;99.90
19870;DHT22;10097;50.862;4.696;2022-12-18T05:14:18;-5.30;99.90
19870;DHT22;10097;50.862;4.696;2022-12-18T05:16:43;-5.30;99.90
19870;DHT22;10097;50.862;4.696;2022-12-18T05:19:09;-5.30;99.90
19870;DHT22;10097;50.862;4.696;2022-12-18T05:21:35;-5.30;99.90
19870;DHT22;10097;50.862;4.696;2022-12-18T05:24:00;-5.20;99.90
19870;DHT22;10097;50.862;4.696;2022-12-18T05:26:26;-5.30;99.90
19870;DHT22;10097;50.862;4.696;2022-12-18T05:28:52;-5.30;99.90
19870;DHT22;10097;50.862;4.696;2022-12-18T05:31:17;-5.30;99.90
19870;DHT22;10097;50.862;4.696;2022-12-18T05:33:48;-5.30;99.90
19870;DHT22;10097;50.862;4.696;2022-12-18T05:36:14;-5.30;99.90
19870;DHT22;10097;50.862;4.696;2022-12-18T05:38:42;-5.30;99.90
19870;DHT22;10097;50.862;4.696;2022-12-18T05:41:08;-5.30;99.90
19870;DHT22;10097;50.862;4.696;2022-12-18T05:43:35;-5.30;99.90
19870;DHT22;10097;50.862;4.696;2022-12-18T05:46:10;-5.30;99.90
19870;DHT22;10097;50.862;4.696;2022-12-18T05:48:36;-5.40;99.90
19870;DHT22;10097;50.862;4.696;2022-12-18T05:51:07;-5.40;99.90
19870;DHT22;10097;50.862;4.696;2022-12-18T05:53:38;-5.30;99.90
19870;DHT22;10097;50.862;4.696;2022-12-18T05:56:12;-5.40;99.90
19870;DHT22;10097;50.862;4.696;2022-12-18T05:58:38;-5.30;99.90
19870;DHT22;10097;50.862;4.696;2022-12-18T06:01:18;-5.40;99.90
19870;DHT22;10097;50.862;4.696;2022-12-18T06:03:44;-5.30;99.90
19870;DHT22;10097;50.862;4.696;2022-12-18T06:06:19;-5.30;99.90
19870;DHT22;10097;50.862;4.696;2022-12-18T06:08:45;-5.30;99.90
19870;DHT22;10097;50.862;4.696;2022-12-18T06:11:11;-5.30;99.90
19870;DHT22;10097;50.862;4.696;2022-12-18T06:13:39;-5.30;99.90
19870;DHT22;10097;50.862;4.696;2022-12-18T06:16:05;-5.30;99.90
19870;DHT22;10097;50.862;4.696;2022-12-18T06:18:31;-5.30;99.90
19870;DHT22;10097;50.862;4.696;2022-12-18T06:20:58;-5.30;99.90
19870;DHT22;10097;50.862;4.696;2022-12-18T06:23:25;-5.20;99.90
19870;DHT22;10097;50.862;4.696;2022-12-18T06:25:51;-5.30;99.90
19870;DHT22;10097;50.862;4.696;2022-12-18T06:28:17;-5.30;99.90
19870;DHT22;10097;50.862;4.696;2022-12-18T06:30:44;-5.30;99.90
19870;DHT22;10097;50.862;4.696;2022-12-18T06:33:12;-5.30;99.90
19870;DHT22;10097;50.862;4.696;2022-12-18T06:35:37;-5.30;99.90
19870;DHT22;10097;50.862;4.696;2022-12-18T06:38:03;-5.20;99.90
19870;DHT22;10097;50.862;4.696;2022-12-18T06:40:29;-5.20;99.90
19870;DHT22;10097;50.862;4.696;2022-12-18T06:42:55;-5.20;99.90
19870;DHT22;10097;50.862;4.696;2022-12-18T06:45:23;-5.20;99.90
19870;DHT22;10097;50.862;4.696;2022-12-18T06:47:49;-5.20;99.90
19870;DHT22;10097;50.862;4.696;2022-12-18T06:50:15;-5.20;99.90
19870;DHT22;10097;50.862;4.696;2022-12-18T06:52:40;-5.20;99.90
19870;DHT22;10097;50.862;4.696;2022-12-18T06:55:08;-5.20;99.90
19870;DHT22;10097;50.862;4.696;2022-12-18T06:57:34;-5.10;99.90
19870;DHT22;10097;50.862;4.696;2022-12-18T06:59:59;-5.10;99.90
19870;DHT22;10097;50.862;4.696;2022-12-18T07:02:25;-5.10;99.90
19870;DHT22;10097;50.862;4.696;2022-12-18T07:04:51;-5.00;99.90
19870;DHT22;10097;50.862;4.696;2022-12-18T07:07:16;-5.00;99.90
19870;DHT22;10097;50.862;4.696;2022-12-18T07:09:42;-5.00;99.90
19870;DHT22;10097;50.862;4.696;2022-12-18T07:12:09;-5.00;99.90
19870;DHT22;10097;50.862;4.696;2022-12-18T07:14:34;-5.00;99.90
19870;DHT22;10097;50.862;4.696;2022-12-18T07:17:00;-4.90;99.90
19870;DHT22;10097;50.862;4.696;2022-12-18T07:19:26;-4.90;99.90
19870;DHT22;10097;50.862;4.696;2022-12-18T07:21:51;-4.80;99.90
19870;DHT22;10097;50.862;4.696;2022-12-18T07:24:17;-4.70;99.90
19870;DHT22;10097;50.862;4.696;2022-12-18T07:26:45;-4.60;99.90
19870;DHT22;10097;50.862;4.696;2022-12-18T07:29:11;-4.60;99.90
19870;DHT22;10097;50.862;4.696;2022-12-18T07:31:37;-4.60;99.90
19870;DHT22;10097;50.862;4.696;2022-12-18T07:34:02;-4.60;99.90
19870;DHT22;10097;50.862;4.696;2022-12-18T07:36:28;-4.50;99.90
19870;DHT22;10097;50.862;4.696;2022-12-18T07:38:54;-4.50;99.90
19870;DHT22;10097;50.862;4.696;2022-12-18T07:41:20;-4.40;99.90
19870;DHT22;10097;50.862;4.696;2022-12-18T07:43:47;-4.40;99.90
19870;DHT22;10097;50.862;4.696;2022-12-18T07:46:14;-4.30;99.90
19870;DHT22;10097;50.862;4.696;2022-12-18T07:48:40;-4.40;99.90
19870;DHT22;10097;50.862;4.696;2022-12-18T07:51:07;-4.40;99.90
19870;DHT22;10097;50.862;4.696;2022-12-18T07:53:34;-4.40;99.90
19870;DHT22;10097;50.862;4.696;2022-12-18T07:56:02;-4.40;99.90
19870;DHT22;10097;50.862;4.696;2022-12-18T07:58:29;-4.40;99.90
19870;DHT22;10097;50.862;4.696;2022-12-18T08:01:03;-4.40;99.90
19870;DHT22;10097;50.862;4.696;2022-12-18T08:03:31;-4.30;99.90
19870;DHT22;10097;50.862;4.696;2022-12-18T08:06:05;-4.20;99.90
19870;DHT22;10097;50.862;4.696;2022-12-18T08:08:33;-4.20;99.90
19870;DHT22;10097;50.862;4.696;2022-12-18T08:10:59;-4.30;99.90
19870;DHT22;10097;50.862;4.696;2022-12-18T08:13:26;-4.30;99.90
19870;DHT22;10097;50.862;4.696;2022-12-18T08:16:01;-4.30;99.90
19870;DHT22;10097;50.862;4.696;2022-12-18T08:18:28;-4.30;99.90
19870;DHT22;10097;50.862;4.696;2022-12-18T08:20:54;-4.20;99.90
19870;DHT22;10097;50.862;4.696;2022-12-18T08:23:28;-4.10;99.90
19870;DHT22;10097;50.862;4.696;2022-12-18T08:25:54;-4.00;99.90
19870;DHT22;10097;50.862;4.696;2022-12-18T08:28:20;-3.90;99.90
19870;DHT22;10097;50.862;4.696;2022-12-18T08:30:46;-3.70;99.90
19870;DHT22;10097;50.862;4.696;2022-12-18T08:33:11;-3.60;99.90
19870;DHT22;10097;50.862;4.696;2022-12-18T08:35:37;-3.40;99.90
19870;DHT22;10097;50.862;4.696;2022-12-18T08:38:03;-3.30;99.90
19870;DHT22;10097;50.862;4.696;2022-12-18T08:40:29;-3.20;99.90
19870;DHT22;10097;50.862;4.696;2022-12-18T08:42:55;-3.20;99.90
19870;DHT22;10097;50.862;4.696;2022-12-18T08:45:39;-3.10;99.90
19870;DHT22;10097;50.862;4.696;2022-12-18T08:48:04;-3.00;99.90
19870;DHT22;10097;50.862;4.696;2022-12-18T08:50:30;-2.90;99.90
19870;DHT22;10097;50.862;4.696;2022-12-18T08:52:56;-2.90;99.90
19870;DHT22;10097;50.862;4.696;2022-12-18T08:55:21;-2.90;99.90
19870;DHT22;10097;50.862;4.696;2022-12-18T08:57:50;-2.90;99.90
19870;DHT22;10097;50.862;4.696;2022-12-18T09:00:16;-2.90;99.90
19870;DHT22;10097;50.862;4.696;2022-12-18T09:02:42;-2.80;99.90
19870;DHT22;10097;50.862;4.696;2022-12-18T09:05:07;-2.70;99.90
19870;DHT22;10097;50.862;4.696;2022-12-18T09:07:33;-2.60;99.90
19870;DHT22;10097;50.862;4.696;2022-12-18T09:09:59;-2.70;99.90
19870;DHT22;10097;50.862;4.696;2022-12-18T09:12:24;-2.60;99.90
19870;DHT22;10097;50.862;4.696;2022-12-18T09:14:50;-2.60;99.90
19870;DHT22;10097;50.862;4.696;2022-12-18T09:17:16;-2.40;99.90
19870;DHT22;10097;50.862;4.696;2022-12-18T09:19:48;-2.20;99.90
19870;DHT22;10097;50.862;4.696;2022-12-18T09:22:16;-2.00;99.90
19870;DHT22;10097;50.862;4.696;2022-12-18T09:24:41;-1.90;99.90
19870;DHT22;10097;50.862;4.696;2022-12-18T09:27:07;-1.70;99.90
19870;DHT22;10097;50.862;4.696;2022-12-18T09:29:33;-1.70;99.90
19870;DHT22;10097;50.862;4.696;2022-12-18T09:31:58;-1.60;99.90
19870;DHT22;10097;50.862;4.696;2022-12-18T09:34:24;-1.50;99.90
19870;DHT22;10097;50.862;4.696;2022-12-18T09:36:50;-1.30;99.90
19870;DHT22;10097;50.862;4.696;2022-12-18T09:39:15;-1.20;99.90
19870;DHT22;10097;50.862;4.696;2022-12-18T09:41:47;-1.10;99.90
19870;DHT22;10097;50.862;4.696;2022-12-18T09:46:55;-1.00;99.90
19870;DHT22;10097;50.862;4.696;2022-12-18T09:49:26;-0.90;99.90
19870;DHT22;10097;50.862;4.696;2022-12-18T09:54:35;-0.70;99.90
19870;DHT22;10097;50.862;4.696;2022-12-18T09:57:02;-0.50;99.90
19870;DHT22;10097;50.862;4.696;2022-12-18T09:59:36;-0.40;99.90
19870;DHT22;10097;50.862;4.696;2022-12-18T10:02:31;-0.30;99.90
19870;DHT22;10097;50.862;4.696;2022-12-18T10:10:33;0.00;99.90
19870;DHT22;10097;50.862;4.696;2022-12-18T10:16:16;0.20;99.90
19870;DHT22;10097;50.862;4.696;2022-12-18T10:18:56;0.20;99.90
19870;DHT22;10097;50.862;4.696;2022-12-18T10:26:48;0.30;99.90
19870;DHT22;10097;50.862;4.696;2022-12-18T10:29:15;0.50;99.90
19870;DHT22;10097;50.862;4.696;2022-12-18T10:31:41;0.40;99.90
19870;DHT22;10097;50.862;4.696;2022-12-18T10:34:11;0.50;99.90
19870;DHT22;10097;50.862;4.696;2022-12-18T10:36:37;0.70;99.90
19870;DHT22;10097;50.862;4.696;2022-12-18T10:39:24;0.60;99.90
19870;DHT22;10097;50.862;4.696;2022-12-18T10:41:51;0.60;99.90
19870;DHT22;10097;50.862;4.696;2022-12-18T10:44:19;0.70;99.90
19870;DHT22;10097;50.862;4.696;2022-12-18T10:46:51;0.60;99.90
19870;DHT22;10097;50.862;4.696;2022-12-18T10:49:31;0.50;99.90
19870;DHT22;10097;50.862;4.696;2022-12-18T10:52:25;0.60;99.90
19870;DHT22;10097;50.862;4.696;2022-12-18T10:54:56;0.70;99.90
19870;DHT22;10097;50.862;4.696;2022-12-18T10:57:36;0.90;99.90
19870;DHT22;10097;50.862;4.696;2022-12-18T11:00:28;0.80;99.90
19870;DHT22;10097;50.862;4.696;2022-12-18T11:02:55;0.90;99.90
19870;DHT22;10097;50.862;4.696;2022-12-18T11:05:30;1.10;99.90
19870;DHT22;10097;50.862;4.696;2022-12-18T11:07:57;1.10;99.90
19870;DHT22;10097;50.862;4.696;2022-12-18T11:10:36;1.10;99.90
19870;DHT22;10097;50.862;4.696;2022-12-18T11:13:34;1.20;99.90
19870;DHT22;10097;50.862;4.696;2022-12-18T11:16:00;1.30;99.90
19870;DHT22;10097;50.862;4.696;2022-12-18T11:18:34;1.40;99.90
19870;DHT22;10097;50.862;4.696;2022-12-18T11:21:09;1.60;99.90
19870;DHT22;10097;50.862;4.696;2022-12-18T11:23:36;1.60;99.90
19870;DHT22;10097;50.862;4.696;2022-12-18T11:26:04;1.60;99.90
19870;DHT22;10097;50.862;4.696;2022-12-18T11:28:40;1.70;99.90
19870;DHT22;10097;50.862;4.696;2022-12-18T11:31:24;1.80;99.90
19870;DHT22;10097;50.862;4.696;2022-12-18T11:36:46;1.90;99.90
19870;DHT22;10097;50.862;4.696;2022-12-18T11:39:38;2.00;99.90
19870;DHT22;10097;50.862;4.696;2022-12-18T11:42:27;2.20;99.90
19870;DHT22;10097;50.862;4.696;2022-12-18T11:47:52;2.20;99.90
19870;DHT22;10097;50.862;4.696;2022-12-18T11:51:25;2.20;99.90
19870;DHT22;10097;50.862;4.696;2022-12-18T11:53:30;2.30;99.90
19870;DHT22;10097;50.862;4.696;2022-12-18T11:59:32;2.70;99.90
19870;DHT22;10097;50.862;4.696;2022-12-18T12:15:53;3.00;99.90
19870;DHT22;10097;50.862;4.696;2022-12-18T12:37:44;3.60;99.90
19870;DHT22;10097;50.862;4.696;2022-12-18T12:40:20;3.70;99.90
19870;DHT22;10097;50.862;4.696;2022-12-18T12:43:01;3.70;99.90
19870;DHT22;10097;50.862;4.696;2022-12-18T12:45:54;3.70;99.90
19870;DHT22;10097;50.862;4.696;2022-12-18T12:51:22;3.80;99.90
19870;DHT22;10097;50.862;4.696;2022-12-18T12:53:49;3.90;99.90
19870;DHT22;10097;50.862;4.696;2022-12-18T12:56:22;4.00;99.90
19870;DHT22;10097;50.862;4.696;2022-12-18T13:01:41;4.10;99.90
19870;DHT22;10097;50.862;4.696;2022-12-18T13:04:23;4.10;99.90
19870;DHT22;10097;50.862;4.696;2022-12-18T13:09:33;4.10;99.90
19870;DHT22;10097;50.862;4.696;2022-12-18T13:12:12;4.20;99.90
19870;DHT22;10097;50.862;4.696;2022-12-18T13:15:13;4.20;99.90
19870;DHT22;10097;50.862;4.696;2022-12-18T13:17:45;4.20;99.90
19870;DHT22;10097;50.862;4.696;2022-12-18T13:20:13;4.10;99.90
19870;DHT22;10097;50.862;4.696;2022-12-18T13:25:31;4.10;99.90
19870;DHT22;10097;50.862;4.696;2022-12-18T13:28:10;4.10;99.90
19870;DHT22;10097;50.862;4.696;2022-12-18T13:33:41;4.10;99.90
19870;DHT22;10097;50.862;4.696;2022-12-18T13:38:47;4.00;99.90
19870;DHT22;10097;50.862;4.696;2022-12-18T13:41:33;4.20;99.90
19870;DHT22;10097;50.862;4.696;2022-12-18T13:44:11;4.10;99.90
19870;DHT22;10097;50.862;4.696;2022-12-18T13:46:46;4.00;99.90
19870;DHT22;10097;50.862;4.696;2022-12-18T13:51:40;4.00;99.90
19870;DHT22;10097;50.862;4.696;2022-12-18T13:54:19;4.00;99.90
19870;DHT22;10097;50.862;4.696;2022-12-18T13:56:47;4.00;99.90
19870;DHT22;10097;50.862;4.696;2022-12-18T13:59:26;4.00;99.90
19870;DHT22;10097;50.862;4.696;2022-12-18T14:01:59;4.00;99.90
19870;DHT22;10097;50.862;4.696;2022-12-18T14:04:34;4.00;99.90
19870;DHT22;10097;50.862;4.696;2022-12-18T14:07:06;4.10;99.90
19870;DHT22;10097;50.862;4.696;2022-12-18T14:09:39;3.90;99.90
19870;DHT22;10097;50.862;4.696;2022-12-18T14:12:06;3.80;99.90
19870;DHT22;10097;50.862;4.696;2022-12-18T14:14:58;3.80;99.90
19870;DHT22;10097;50.862;4.696;2022-12-18T14:17:25;3.80;99.90
19870;DHT22;10097;50.862;4.696;2022-12-18T14:19:51;3.70;99.90
19870;DHT22;10097;50.862;4.696;2022-12-18T14:22:23;3.70;99.90
19870;DHT22;10097;50.862;4.696;2022-12-18T14:27:51;3.70;99.90
19870;DHT22;10097;50.862;4.696;2022-12-18T14:35:35;3.60;99.90
19870;DHT22;10097;50.862;4.696;2022-12-18T14:38:18;3.50;99.90
19870;DHT22;10097;50.862;4.696;2022-12-18T14:40:44;3.50;99.90
19870;DHT22;10097;50.862;4.696;2022-12-18T14:43:11;3.50;99.90
19870;DHT22;10097;50.862;4.696;2022-12-18T14:50:41;3.60;99.90
19870;DHT22;10097;50.862;4.696;2022-12-18T14:53:20;3.70;99.90
19870;DHT22;10097;50.862;4.696;2022-12-18T14:55:47;3.70;99.90
19870;DHT22;10097;50.862;4.696;2022-12-18T14:58:15;3.50;99.90
19870;DHT22;10097;50.862;4.696;2022-12-18T15:00:42;3.40;99.90
19870;DHT22;10097;50.862;4.696;2022-12-18T15:03:08;3.50;99.90
19870;DHT22;10097;50.862;4.696;2022-12-18T15:05:35;3.50;99.90
19870;DHT22;10097;50.862;4.696;2022-12-18T15:08:02;3.50;99.90
19870;DHT22;10097;50.862;4.696;2022-12-18T15:10:30;3.50;99.90
19870;DHT22;10097;50.862;4.696;2022-12-18T15:23:23;3.30;99.90
19870;DHT22;10097;50.862;4.696;2022-12-18T15:25:59;3.40;99.90
19870;DHT22;10097;50.862;4.696;2022-12-18T15:28:34;3.20;99.90
19870;DHT22;10097;50.862;4.696;2022-12-18T15:31:05;3.30;99.90
19870;DHT22;10097;50.862;4.696;2022-12-18T15:33:36;3.40;99.90
19870;DHT22;10097;50.862;4.696;2022-12-18T15:36:10;3.30;99.90
19870;DHT22;10097;50.862;4.696;2022-12-18T15:38:36;3.30;99.90
19870;DHT22;10097;50.862;4.696;2022-12-18T15:41:02;3.20;99.90
19870;DHT22;10097;50.862;4.696;2022-12-18T15:43:28;3.10;99.90
19870;DHT22;10097;50.862;4.696;2022-12-18T15:46:05;3.20;99.90
19870;DHT22;10097;50.862;4.696;2022-12-18T15:48:33;3.20;99.90
19870;DHT22;10097;50.862;4.696;2022-12-18T15:51:00;3.20;99.90
19870;DHT22;10097;50.862;4.696;2022-12-18T15:53:30;3.20;99.90
19870;DHT22;10097;50.862;4.696;2022-12-18T15:55:57;3.20;99.90
19870;DHT22;10097;50.862;4.696;2022-12-18T15:58:41;3.20;99.90
19870;DHT22;10097;50.862;4.696;2022-12-18T16:01:08;3.30;99.90
19870;DHT22;10097;50.862;4.696;2022-12-18T16:03:34;3.30;99.90
19870;DHT22;10097;50.862;4.696;2022-12-18T16:06:00;3.20;99.90
19870;DHT22;10097;50.862;4.696;2022-12-18T16:08:30;3.20;99.90
19870;DHT22;10097;50.862;4.696;2022-12-18T16:10:57;3.10;99.90
19870;DHT22;10097;50.862;4.696;2022-12-18T16:13:23;3.10;99.90
19870;DHT22;10097;50.862;4.696;2022-12-18T16:15:49;3.10;99.90
19870;DHT22;10097;50.862;4.696;2022-12-18T16:18:15;3.10;99.90
19870;DHT22;10097;50.862;4.696;2022-12-18T16:20:40;3.20;99.90
19870;DHT22;10097;50.862;4.696;2022-12-18T16:23:06;3.10;99.90
19870;DHT22;10097;50.862;4.696;2022-12-18T16:25:32;3.10;99.90
19870;DHT22;10097;50.862;4.696;2022-12-18T16:27:58;3.00;99.90
19870;DHT22;10097;50.862;4.696;2022-12-18T16:30:26;2.90;99.90
19870;DHT22;10097;50.862;4.696;2022-12-18T16:32:54;2.90;99.90
19870;DHT22;10097;50.862;4.696;2022-12-18T16:35:20;3.00;99.90
19870;DHT22;10097;50.862;4.696;2022-12-18T16:37:46;3.00;99.90
19870;DHT22;10097;50.862;4.696;2022-12-18T16:40:14;2.90;99.90
19870;DHT22;10097;50.862;4.696;2022-12-18T16:42:41;2.80;99.90
19870;DHT22;10097;50.862;4.696;2022-12-18T16:45:09;2.90;99.90
19870;DHT22;10097;50.862;4.696;2022-12-18T16:47:36;2.80;99.90
19870;DHT22;10097;50.862;4.696;2022-12-18T16:50:03;2.80;99.90
19870;DHT22;10097;50.862;4.696;2022-12-18T16:52:29;3.00;99.90
19870;DHT22;10097;50.862;4.696;2022-12-18T16:54:55;3.10;99.90
19870;DHT22;10097;50.862;4.696;2022-12-18T16:57:21;3.20;99.90
19870;DHT22;10097;50.862;4.696;2022-12-18T16:59:47;3.20;99.90
19870;DHT22;10097;50.862;4.696;2022-12-18T17:02:21;3.20;99.90
19870;DHT22;10097;50.862;4.696;2022-12-18T17:04:47;3.30;99.90
19870;DHT22;10097;50.862;4.696;2022-12-18T17:07:14;3.30;99.90
19870;DHT22;10097;50.862;4.696;2022-12-18T17:09:40;3.30;99.90
19870;DHT22;10097;50.862;4.696;2022-12-18T17:12:06;3.30;99.90
19870;DHT22;10097;50.862;4.696;2022-12-18T17:14:32;3.40;99.90
19870;DHT22;10097;50.862;4.696;2022-12-18T17:16:59;3.50;99.90
19870;DHT22;10097;50.862;4.696;2022-12-18T17:19:25;3.50;99.90
19870;DHT22;10097;50.862;4.696;2022-12-18T17:21:52;3.50;99.90
19870;DHT22;10097;50.862;4.696;2022-12-18T17:24:18;3.60;99.90
19870;DHT22;10097;50.862;4.696;2022-12-18T17:26:44;3.60;99.90
19870;DHT22;10097;50.862;4.696;2022-12-18T17:29:15;3.50;99.90
19870;DHT22;10097;50.862;4.696;2022-12-18T17:31:41;3.60;99.90
19870;DHT22;10097;50.862;4.696;2022-12-18T17:34:09;3.50;99.90
19870;DHT22;10097;50.862;4.696;2022-12-18T17:36:34;3.60;99.90
19870;DHT22;10097;50.862;4.696;2022-12-18T17:39:01;3.50;99.90
19870;DHT22;10097;50.862;4.696;2022-12-18T17:41:27;3.40;99.90
19870;DHT22;10097;50.862;4.696;2022-12-18T17:43:58;3.40;99.90
19870;DHT22;10097;50.862;4.696;2022-12-18T17:46:26;3.30;99.90
19870;DHT22;10097;50.862;4.696;2022-12-18T17:48:54;3.40;99.90
19870;DHT22;10097;50.862;4.696;2022-12-18T17:51:20;3.40;99.90
19870;DHT22;10097;50.862;4.696;2022-12-18T17:53:46;3.30;99.90
19870;DHT22;10097;50.862;4.696;2022-12-18T17:56:13;3.20;99.90
19870;DHT22;10097;50.862;4.696;2022-12-18T17:58:39;3.30;99.90
19870;DHT22;10097;50.862;4.696;2022-12-18T18:01:05;3.30;99.90
19870;DHT22;10097;50.862;4.696;2022-12-18T18:03:32;3.20;99.90